Terminal Aerodrome Forecast
Issued by NWS

Home | Current Version | Previous Version | Text Only | Print | Product List | Glossary On
Versions: 1 2 3 4 5 6 7 8 9 10 11 12
000
FTUS44 KJAN 251120
TAFGTR
TAF
KGTR 251120Z 2512/2612 18003KT P6SM FEW250
     FM251500 18010KT P6SM FEW040 SCT250
     FM260000 16006KT P6SM FEW250=

USA.gov is the U.S. government's official web portal to all federal, state and local government web resources and services.